Time;durP1;ratioP1;P1;durP2;ratioP2;P2;SDS_P1;SDS_P2;PMS_P1;PMS_P2;Temp;Humidity;BMP_temperature;BMP_pressure;BME280_temperature;BME280_humidity;BME280_pressure;Samples;Min_cycle;Max_cycle;Signal;HPM_P1;HPM_P2
2022/11/08 00:01:36;;;;;;;9.35;1.48;;;13.50;97.40;;;;;;5053718;28;20040;-77
2022/11/08 00:04:04;;;;;;;12.43;2.10;;;13.50;97.50;;;;;;5053646;28;20044;-76
2022/11/08 00:14:43;;;;;;;10.73;1.88;;;13.50;97.80;;;;;;5054232;28;20117;-76
2022/11/08 00:17:09;;;;;;;7.50;1.30;;;13.50;97.80;;;;;;5018875;28;20052;-76
2022/11/08 00:19:35;;;;;;;8.43;1.50;;;13.50;97.80;;;;;;5052473;28;20033;-76
2022/11/08 00:22:00;;;;;;;10.88;1.45;;;13.40;97.90;;;;;;5035429;28;20049;-76
2022/11/08 00:24:26;;;;;;;13.18;1.98;;;13.40;97.90;;;;;;5053607;28;20079;-76
2022/11/08 00:26:51;;;;;;;8.07;1.33;;;13.50;98.00;;;;;;5051950;28;20029;-76
2022/11/08 00:29:17;;;;;;;10.10;1.55;;;13.40;98.00;;;;;;5035554;28;20028;-77
2022/11/08 00:31:43;;;;;;;8.18;1.52;;;13.40;98.10;;;;;;5053287;28;20083;-77
2022/11/08 00:34:09;;;;;;;7.43;1.52;;;13.40;98.10;;;;;;5052135;28;20080;-77
2022/11/08 00:36:35;;;;;;;11.85;1.92;;;13.40;98.10;;;;;;5035406;28;20033;-76
2022/11/08 00:39:00;;;;;;;11.63;1.67;;;13.30;98.20;;;;;;5035519;28;20035;-78
2022/11/08 00:41:26;;;;;;;13.25;1.77;;;13.20;98.20;;;;;;5052278;28;20036;-77
2022/11/08 00:43:51;;;;;;;12.10;1.73;;;13.20;98.30;;;;;;5052277;28;20027;-77
2022/11/08 00:46:17;;;;;;;10.30;1.77;;;13.20;98.40;;;;;;5053152;28;20467;-77
2022/11/08 00:48:43;;;;;;;9.90;1.42;;;13.10;98.60;;;;;;5034909;28;20063;-77
2022/11/08 00:51:10;;;;;;;10.23;1.58;;;13.10;98.70;;;;;;5052204;28;20350;-76
2022/11/08 00:53:37;;;;;;;9.43;1.63;;;13.00;98.80;;;;;;5048859;28;20120;-77
2022/11/08 00:56:06;;;;;;;9.13;1.80;;;13.10;98.90;;;;;;5035092;28;20025;-77
2022/11/08 00:58:32;;;;;;;11.82;2.13;;;13.00;98.90;;;;;;5035144;28;20025;-77
2022/11/08 01:00:59;;;;;;;10.40;1.60;;;13.00;99.10;;;;;;5051736;28;20029;-77
2022/11/08 01:03:25;;;;;;;7.78;1.80;;;12.90;99.10;;;;;;5053001;28;20033;-77
2022/11/08 01:05:53;;;;;;;12.65;1.65;;;12.90;99.30;;;;;;5035137;28;20021;-76
2022/11/08 01:08:21;;;;;;;9.43;2.13;;;12.90;99.40;;;;;;5035194;28;20059;-77
2022/11/08 01:10:50;;;;;;;10.75;1.70;;;12.90;99.50;;;;;;5052833;28;20504;-78
2022/11/08 01:13:17;;;;;;;9.57;1.90;;;12.90;99.70;;;;;;5053038;28;20389;-77
2022/11/08 01:15:44;;;;;;;6.43;1.52;;;12.80;99.80;;;;;;5034971;28;20017;-77
2022/11/08 01:18:12;;;;;;;9.02;2.03;;;12.80;99.80;;;;;;5035002;28;20060;-77
2022/11/08 01:20:41;;;;;;;9.32;2.08;;;12.80;99.80;;;;;;5052666;28;20037;-77
2022/11/08 01:23:07;;;;;;;7.00;1.90;;;12.80;99.90;;;;;;5034336;28;20052;-77
2022/11/08 01:25:38;;;;;;;13.02;2.25;;;12.70;99.90;;;;;;5035510;28;20025;-77
2022/11/08 01:28:05;;;;;;;9.65;1.92;;;12.70;99.90;;;;;;5034647;28;20013;-78
2022/11/08 01:30:31;;;;;;;9.32;1.70;;;12.70;99.90;;;;;;5037315;28;20029;-78
2022/11/08 01:32:56;;;;;;;6.68;1.55;;;12.60;99.90;;;;;;5054778;28;20447;-78
2022/11/08 01:35:22;;;;;;;7.93;2.03;;;12.60;99.90;;;;;;5038202;28;20025;-78
2022/11/08 01:37:48;;;;;;;5.85;1.70;;;12.60;99.90;;;;;;5038235;28;20037;-78
2022/11/08 01:40:13;;;;;;;8.82;2.10;;;12.60;99.90;;;;;;5038141;28;20091;-78
2022/11/08 01:42:40;;;;;;;7.18;1.92;;;12.60;99.90;;;;;;5055320;28;20029;-78
2022/11/08 01:45:08;;;;;;;7.60;1.77;;;12.50;99.90;;;;;;5038298;28;20033;-78
2022/11/08 01:47:34;;;;;;;7.40;1.90;;;12.50;99.90;;;;;;5056082;28;20074;-78
2022/11/08 01:50:11;;;;;;;9.25;1.75;;;12.50;99.90;;;;;;5055310;28;20358;-78
2022/11/08 01:52:55;;;;;;;11.65;2.72;;;12.50;99.90;;;;;;5038183;28;20158;-78
2022/11/08 01:55:35;;;;;;;7.53;1.80;;;12.50;99.90;;;;;;5021732;28;20029;-80
2022/11/08 01:58:05;;;;;;;12.48;1.90;;;12.50;99.90;;;;;;5055762;28;20034;-78
2022/11/08 02:00:31;;;;;;;8.48;1.70;;;12.50;99.90;;;;;;5037833;28;20017;-77
2022/11/08 02:03:00;;;;;;;14.20;1.88;;;12.40;99.90;;;;;;5037417;28;20029;-77
2022/11/08 02:05:28;;;;;;;10.15;1.70;;;12.40;99.90;;;;;;5038488;28;20032;-78
2022/11/08 02:08:23;;;;;;;6.80;1.40;;;12.40;99.90;;;;;;5037704;28;20021;-78
2022/11/08 02:10:49;;;;;;;;;;;12.40;99.90;;;;;;5055938;28;20014;-78
2022/11/08 02:13:18;;;;;;;10.07;2.03;;;12.40;99.90;;;;;;5038069;28;20412;-78
2022/11/08 02:15:45;;;;;;;8.45;2.10;;;12.40;99.90;;;;;;5037595;28;20495;-78
2022/11/08 02:18:13;;;;;;;8.38;1.52;;;12.40;99.90;;;;;;5037505;28;20103;-78
2022/11/08 02:20:49;;;;;;;9.27;2.25;;;12.30;99.90;;;;;;5037290;28;20543;-78
2022/11/08 02:23:53;;;;;;;11.15;1.65;;;12.30;99.90;;;;;;5055096;28;20050;-77
2022/11/08 02:26:33;;;;;;;6.97;1.80;;;12.40;99.90;;;;;;4994065;28;20022;-78
2022/11/08 02:29:21;;;;;;;8.02;1.88;;;12.40;99.90;;;;;;4977431;28;20518;-77
2022/11/08 02:31:47;;;;;;;9.15;1.75;;;12.30;99.90;;;;;;5025845;28;20044;-78
2022/11/08 02:34:13;;;;;;;17.45;2.63;;;12.40;99.90;;;;;;5037869;28;20033;-78
2022/11/08 02:36:39;;;;;;;7.47;1.63;;;12.40;99.90;;;;;;5054117;28;20426;-78
2022/11/08 02:39:04;;;;;;;10.95;2.00;;;12.40;99.90;;;;;;5021020;28;20118;-78
2022/11/08 02:41:30;;;;;;;7.82;1.27;;;12.40;99.90;;;;;;5037016;28;20060;-78
2022/11/08 02:43:59;;;;;;;7.45;1.20;;;12.40;99.90;;;;;;5037166;28;20385;-77
2022/11/08 02:46:24;;;;;;;10.02;1.60;;;12.40;99.90;;;;;;5037355;28;20083;-78
2022/11/08 02:48:50;;;;;;;8.90;1.73;;;12.40;99.90;;;;;;5036884;28;20045;-78
2022/11/08 02:51:15;;;;;;;7.70;1.55;;;12.40;99.90;;;;;;5037081;28;20068;-78
2022/11/08 02:53:41;;;;;;;10.35;1.58;;;12.40;99.90;;;;;;5036798;28;20033;-77
2022/11/08 02:56:07;;;;;;;15.05;1.90;;;12.40;99.90;;;;;;5053586;28;20037;-77
2022/11/08 02:58:32;;;;;;;7.30;1.50;;;12.40;99.90;;;;;;5036812;28;20566;-78
2022/11/08 03:00:58;;;;;;;4.47;1.42;;;12.40;99.90;;;;;;5054568;28;20056;-78
2022/11/08 03:03:23;;;;;;;9.38;1.38;;;12.20;99.90;;;;;;5036918;28;20041;-79
2022/11/08 03:05:49;;;;;;;5.72;1.30;;;12.40;99.90;;;;;;5036411;28;20083;-78
2022/11/08 03:08:15;;;;;;;8.88;2.10;;;12.30;99.90;;;;;;5019967;28;20025;-78
2022/11/08 03:10:40;;;;;;;7.47;1.60;;;12.30;99.90;;;;;;5036755;28;20032;-77
2022/11/08 03:13:06;;;;;;;7.75;1.20;;;12.30;99.90;;;;;;5019718;28;20063;-77
2022/11/08 03:15:32;;;;;;;6.30;1.35;;;12.40;99.90;;;;;;5036314;28;20033;-77
2022/11/08 03:17:59;;;;;;;7.82;1.75;;;12.30;99.90;;;;;;5054289;28;20378;-77
2022/11/08 03:20:25;;;;;;;5.80;1.63;;;12.30;99.90;;;;;;5052955;28;20029;-78
2022/11/08 03:23:06;;;;;;;11.15;1.42;;;12.30;99.90;;;;;;5035951;28;20041;-78
2022/11/08 03:25:32;;;;;;;8.70;1.42;;;12.30;99.90;;;;;;5053920;28;20017;-78
2022/11/08 03:28:02;;;;;;;7.00;1.63;;;12.30;99.90;;;;;;5036101;28;20112;-78
2022/11/08 03:30:28;;;;;;;10.07;1.70;;;12.30;99.90;;;;;;5036041;28;20025;-78
2022/11/08 03:32:54;;;;;;;11.98;1.70;;;12.30;99.90;;;;;;5019776;28;20029;-77
2022/11/08 03:35:20;;;;;;;6.60;1.30;;;12.30;99.90;;;;;;5053430;28;20029;-80
2022/11/08 03:37:53;;;;;;;7.18;1.33;;;12.30;99.90;;;;;;5052443;28;20496;-78
2022/11/08 03:40:19;;;;;;;6.50;1.50;;;12.30;99.90;;;;;;5053999;28;20392;-77
2022/11/08 03:42:45;;;;;;;7.15;1.33;;;12.20;99.90;;;;;;5052878;28;20033;-78
2022/11/08 03:45:12;;;;;;;11.60;2.15;;;12.20;99.90;;;;;;5053806;28;20485;-78
2022/11/08 03:47:38;;;;;;;12.23;2.47;;;12.30;99.90;;;;;;5036385;28;20025;-77
2022/11/08 03:50:06;;;;;;;7.03;1.42;;;12.20;99.90;;;;;;5036014;28;20033;-77
2022/11/08 03:52:49;;;;;;;4.85;1.40;;;12.20;99.90;;;;;;5053159;28;20499;-77
2022/11/08 03:55:15;;;;;;;7.05;1.13;;;12.20;99.90;;;;;;5035926;28;20469;-78
2022/11/08 03:57:42;;;;;;;7.35;1.25;;;12.10;99.90;;;;;;5053604;28;20421;-77
2022/11/08 04:00:09;;;;;;;7.55;1.42;;;12.20;99.90;;;;;;5035786;28;20400;-77
2022/11/08 04:02:35;;;;;;;4.43;0.88;;;12.20;99.90;;;;;;5035835;28;20033;-77
2022/11/08 04:05:01;;;;;;;5.93;1.20;;;12.10;99.90;;;;;;5052371;28;20443;-77
2022/11/08 04:07:27;;;;;;;8.05;1.42;;;12.10;99.90;;;;;;5019130;28;20074;-77
2022/11/08 04:09:54;;;;;;;7.47;1.60;;;12.10;99.90;;;;;;5035536;28;20028;-77
2022/11/08 04:15:16;;;;;;;6.43;1.08;;;12.10;99.90;;;;;;5039214;28;20040;-78
2022/11/08 04:23:16;;;;;;;;;;;12.00;99.90;;;;;;5054058;28;20111;-77
2022/11/08 04:25:43;;;;;;;4.15;1.10;;;12.00;99.90;;;;;;5035421;28;19919;-78
2022/11/08 04:28:09;;;;;;;10.65;1.50;;;11.90;99.90;;;;;;5052049;28;20025;-78
2022/11/08 04:30:34;;;;;;;5.53;1.13;;;11.90;99.90;;;;;;5035396;28;20017;-78
2022/11/08 04:33:01;;;;;;;3.25;1.20;;;11.80;99.90;;;;;;5035382;28;20390;-78
2022/11/08 04:35:28;;;;;;;4.78;1.10;;;11.80;99.90;;;;;;5053132;28;20538;-77
2022/11/08 04:37:59;;;;;;;4.13;0.85;;;11.90;99.90;;;;;;5035189;28;20029;-77
2022/11/08 04:40:25;;;;;;;10.85;1.40;;;11.80;99.90;;;;;;5035177;28;20025;-77
2022/11/08 04:42:50;;;;;;;7.63;1.55;;;11.80;99.90;;;;;;5035522;28;20033;-77
2022/11/08 04:45:16;;;;;;;3.65;1.10;;;11.80;99.90;;;;;;5035132;28;20021;-77
2022/11/08 04:47:45;;;;;;;6.18;1.20;;;11.70;99.90;;;;;;5051782;28;20111;-77
2022/11/08 04:50:11;;;;;;;4.03;1.02;;;11.70;99.90;;;;;;5035090;28;20025;-77
2022/11/08 04:52:36;;;;;;;6.90;1.10;;;11.60;99.90;;;;;;5035181;28;20025;-77
2022/11/08 04:55:02;;;;;;;5.60;0.90;;;11.70;99.90;;;;;;5035239;28;20029;-78
2022/11/08 04:57:28;;;;;;;8.07;1.05;;;11.70;99.90;;;;;;5035070;28;20489;-77
2022/11/08 04:59:53;;;;;;;7.63;1.15;;;11.80;99.90;;;;;;5051616;28;20037;-77
2022/11/08 05:02:19;;;;;;;7.45;1.30;;;11.70;99.90;;;;;;5034821;28;20461;-77
2022/11/08 05:04:44;;;;;;;8.15;1.10;;;11.70;99.90;;;;;;5054149;28;20025;-77
2022/11/08 05:07:10;;;;;;;6.88;1.15;;;11.80;99.90;;;;;;5038915;28;20068;-78
2022/11/08 05:09:36;;;;;;;8.07;1.10;;;11.70;99.90;;;;;;5022647;28;20028;-77
2022/11/08 05:12:01;;;;;;;10.10;2.05;;;11.80;99.90;;;;;;5039168;28;20032;-77
2022/11/08 05:14:27;;;;;;;3.08;1.05;;;11.80;99.90;;;;;;5055563;28;20029;-77
2022/11/08 05:16:53;;;;;;;6.65;1.38;;;11.70;99.90;;;;;;5039184;28;20112;-77
2022/11/08 05:23:22;;;;;;;5.85;1.15;;;11.80;99.90;;;;;;5039140;28;20029;-77
2022/11/08 05:24:48;;;;;;;6.90;1.55;;;11.80;99.90;;;;;;5056142;28;20036;-77
2022/11/08 05:27:13;;;;;;;4.68;1.17;;;11.80;99.80;;;;;;5055558;28;20025;-77
2022/11/08 05:29:39;;;;;;;4.53;0.80;;;11.80;99.80;;;;;;5038446;28;20029;-77
2022/11/08 05:32:04;;;;;;;4.75;0.93;;;11.80;99.70;;;;;;5022426;28;20044;-78
2022/11/08 05:34:30;;;;;;;8.07;1.42;;;11.80;99.60;;;;;;5038731;28;20040;-78
2022/11/08 05:36:56;;;;;;;5.25;1.13;;;11.70;99.50;;;;;;5056523;28;20464;-77
2022/11/08 05:39:21;;;;;;;5.68;0.93;;;11.80;99.50;;;;;;5038283;28;20029;-77
2022/11/08 05:41:47;;;;;;;4.70;1.10;;;11.80;99.40;;;;;;5035905;28;20037;-77
2022/11/08 05:44:12;;;;;;;5.00;1.17;;;11.80;99.30;;;;;;5017921;28;20052;-77
2022/11/08 05:46:38;;;;;;;10.40;1.52;;;11.80;99.30;;;;;;5021442;28;20067;-77
2022/11/08 05:49:04;;;;;;;4.68;1.10;;;11.70;99.30;;;;;;5001797;28;20076;-78
2022/11/08 05:51:31;;;;;;;2.90;0.90;;;11.70;99.20;;;;;;5027872;28;20065;-77
2022/11/08 05:53:56;;;;;;;7.07;1.35;;;11.70;99.20;;;;;;5038212;28;20025;-77
2022/11/08 05:56:22;;;;;;;3.95;0.90;;;11.70;99.10;;;;;;5038275;28;20124;-77
2022/11/08 05:58:47;;;;;;;5.60;1.10;;;11.70;99.20;;;;;;5038244;28;20086;-77
2022/11/08 06:01:18;;;;;;;6.57;0.85;;;11.70;99.10;;;;;;5037891;28;20102;-77
2022/11/08 06:03:44;;;;;;;3.85;0.80;;;11.70;99.10;;;;;;5054712;28;20036;-78
2022/11/08 06:06:15;;;;;;;6.72;1.25;;;11.70;99.10;;;;;;5037648;28;20035;-78
2022/11/08 06:08:42;;;;;;;5.53;1.20;;;11.70;99.10;;;;;;5037543;28;20519;-78
2022/11/08 06:11:10;;;;;;;5.78;1.20;;;11.70;99.10;;;;;;5037787;28;20037;-79
2022/11/08 06:13:40;;;;;;;3.22;0.88;;;11.70;99.10;;;;;;5037580;28;20430;-78
2022/11/08 06:16:08;;;;;;;6.60;1.40;;;11.70;99.10;;;;;;5037286;28;20533;-80
2022/11/08 06:18:34;;;;;;;6.32;1.33;;;11.70;99.10;;;;;;5043587;28;20036;-82
2022/11/08 06:21:01;;;;;;;6.70;1.20;;;11.60;99.10;;;;;;5055185;28;20116;-83
2022/11/08 06:23:28;;;;;;;3.45;1.02;;;11.60;99.10;;;;;;5040690;28;20554;-82
2022/11/08 06:25:54;;;;;;;4.80;1.05;;;11.60;99.10;;;;;;5052205;28;20418;-82
2022/11/08 06:28:20;;;;;;;3.60;0.95;;;11.60;99.10;;;;;;5027986;28;20025;-82
2022/11/08 06:30:46;;;;;;;7.18;1.45;;;11.60;99.10;;;;;;5041788;28;20063;-81
2022/11/08 06:33:12;;;;;;;6.00;1.17;;;11.60;99.10;;;;;;5035510;28;20029;-81
2022/11/08 06:35:37;;;;;;;7.20;1.40;;;11.60;99.10;;;;;;4999926;28;20386;-81
2022/11/08 06:38:03;;;;;;;6.00;1.00;;;11.60;99.10;;;;;;5041051;28;20043;-82
2022/11/08 06:40:31;;;;;;;5.28;1.17;;;11.60;99.10;;;;;;5028435;28;20396;-82
2022/11/08 06:42:57;;;;;;;5.30;1.40;;;11.60;99.10;;;;;;5065747;28;20385;-82
2022/11/08 06:45:27;;;;;;;3.80;1.10;;;11.60;99.10;;;;;;5036223;28;20108;-83
2022/11/08 06:48:00;;;;;;;4.10;1.33;;;11.60;99.10;;;;;;5035276;28;20025;-84
2022/11/08 06:50:26;;;;;;;4.30;1.40;;;11.60;99.10;;;;;;5018227;28;20385;-83
2022/11/08 06:53:03;;;;;;;5.47;1.00;;;11.60;99.10;;;;;;5036291;28;20029;-83
2022/11/08 06:55:29;;;;;;;5.80;1.20;;;11.60;99.00;;;;;;5018631;28;20060;-83
2022/11/08 06:57:55;;;;;;;4.50;1.17;;;11.70;99.10;;;;;;5002659;28;20040;-85
2022/11/08 07:00:21;;;;;;;9.90;2.45;;;11.60;99.10;;;;;;5018864;28;20085;-83
2022/11/08 07:02:55;;;;;;;7.82;1.17;;;11.60;99.00;;;;;;5017967;28;20384;-82
2022/11/08 07:05:21;;;;;;;4.90;1.17;;;11.60;99.00;;;;;;5035000;28;20032;-83
2022/11/08 07:07:50;;;;;;;6.78;1.85;;;11.70;99.00;;;;;;5000900;28;20022;-83
2022/11/08 07:10:21;;;;;;;4.05;1.30;;;11.70;98.90;;;;;;4986932;28;20021;-81
2022/11/08 07:12:47;;;;;;;5.97;1.48;;;11.70;98.90;;;;;;5057541;28;20021;-86
2022/11/08 07:15:14;;;;;;;5.03;1.15;;;11.70;99.00;;;;;;5039916;28;20028;-81
2022/11/08 07:17:40;;;;;;;4.28;1.23;;;11.70;99.00;;;;;;5056167;28;20032;-81
2022/11/08 07:20:07;;;;;;;2.50;1.27;;;11.60;99.20;;;;;;5056830;28;20386;-83
2022/11/08 07:22:33;;;;;;;5.43;1.52;;;11.70;98.90;;;;;;5052902;28;20033;-82
2022/11/08 07:24:58;;;;;;;5.38;1.33;;;11.60;99.00;;;;;;5036487;28;20081;-82
2022/11/08 07:27:24;;;;;;;4.60;0.90;;;11.70;98.90;;;;;;5051934;28;20037;-83
2022/11/08 07:29:49;;;;;;;5.72;1.17;;;11.70;98.90;;;;;;5052922;28;20025;-82
2022/11/08 07:32:15;;;;;;;3.80;1.20;;;11.70;98.90;;;;;;5053023;28;20056;-81
2022/11/08 07:34:40;;;;;;;6.55;1.50;;;11.70;98.90;;;;;;5036108;28;20036;-82
2022/11/08 07:37:06;;;;;;;5.93;1.52;;;11.70;98.90;;;;;;5035789;28;20420;-81
2022/11/08 07:39:32;;;;;;;6.70;1.30;;;11.70;98.90;;;;;;5035860;28;20033;-82
2022/11/08 07:41:57;;;;;;;3.72;1.00;;;11.70;98.70;;;;;;5035833;28;20029;-82
2022/11/08 07:44:23;;;;;;;6.72;1.40;;;11.80;98.60;;;;;;5036132;28;20481;-82
2022/11/08 07:46:48;;;;;;;5.88;0.98;;;11.80;98.60;;;;;;5052386;28;20052;-81
2022/11/08 07:49:14;;;;;;;3.35;0.90;;;11.90;98.60;;;;;;5019049;28;20036;-83
2022/11/08 07:51:40;;;;;;;5.82;1.17;;;11.90;98.40;;;;;;5054005;28;20025;-81
2022/11/08 07:54:05;;;;;;;5.50;1.17;;;12.00;98.20;;;;;;5052309;28;20036;-82
2022/11/08 07:56:31;;;;;;;6.32;1.20;;;12.10;98.10;;;;;;5035686;28;20033;-82
2022/11/08 07:58:57;;;;;;;5.30;1.05;;;12.10;97.80;;;;;;5035571;28;20029;-81
2022/11/08 08:01:22;;;;;;;3.03;0.77;;;12.20;97.30;;;;;;5053271;28;20385;-81
2022/11/08 08:03:48;;;;;;;5.50;1.35;;;12.30;97.10;;;;;;5019203;28;20021;-82
2022/11/08 08:06:13;;;;;;;3.85;0.88;;;12.30;96.90;;;;;;5019423;28;20017;-82
2022/11/08 08:08:39;;;;;;;6.57;1.05;;;12.40;96.90;;;;;;5053620;28;20392;-81
2022/11/08 08:11:05;;;;;;;4.90;1.60;;;12.50;96.40;;;;;;5019197;28;20071;-81
2022/11/08 08:13:31;;;;;;;7.82;1.00;;;12.50;96.00;;;;;;5051703;28;20469;-83
2022/11/08 08:15:59;;;;;;;3.63;0.95;;;12.60;95.80;;;;;;5051989;28;20028;-82
2022/11/08 08:18:25;;;;;;;6.20;0.80;;;12.70;95.50;;;;;;5052290;28;20084;-81
2022/11/08 08:20:51;;;;;;;3.70;0.90;;;12.80;95.50;;;;;;5052179;28;20032;-81
2022/11/08 08:23:16;;;;;;;3.58;0.82;;;12.80;95.00;;;;;;5034913;28;20049;-82
2022/11/08 08:25:42;;;;;;;6.32;1.05;;;12.90;94.80;;;;;;5051921;28;20037;-82
2022/11/08 08:28:09;;;;;;;3.65;0.75;;;12.90;94.10;;;;;;5018830;28;20082;-81
2022/11/08 08:30:35;;;;;;;3.60;0.98;;;13.00;93.70;;;;;;5052964;28;20029;-80
2022/11/08 08:33:16;;;;;;;6.60;1.02;;;13.10;93.00;;;;;;5052920;28;20029;-81
2022/11/08 08:35:44;;;;;;;6.13;0.93;;;13.10;93.00;;;;;;5051675;28;20603;-81
2022/11/08 08:38:11;;;;;;;4.75;1.00;;;13.20;92.40;;;;;;5021093;28;20457;-81
2022/11/08 08:40:37;;;;;;;4.53;0.90;;;13.30;92.40;;;;;;5057129;28;20461;-81
2022/11/08 08:43:04;;;;;;;4.63;0.85;;;13.30;92.10;;;;;;5056116;28;20041;-82
2022/11/08 08:45:31;;;;;;;5.20;1.00;;;13.40;92.00;;;;;;5055755;28;20471;-82
2022/11/08 08:47:57;;;;;;;2.95;0.90;;;13.40;91.70;;;;;;5040298;28;20029;-81
2022/11/08 08:50:23;;;;;;;8.02;1.23;;;13.50;91.70;;;;;;5057504;28;20021;-81
2022/11/08 08:52:49;;;;;;;2.83;0.82;;;13.50;91.30;;;;;;5057051;28;20119;-81
2022/11/08 08:55:15;;;;;;;3.72;0.82;;;13.60;91.20;;;;;;5039248;28;20057;-80
2022/11/08 08:57:45;;;;;;;8.30;1.30;;;13.60;90.70;;;;;;5055540;28;20025;-81
2022/11/08 09:00:12;;;;;;;3.40;1.30;;;13.60;90.50;;;;;;5039060;28;20406;-82
2022/11/08 09:02:41;;;;;;;4.38;1.15;;;13.70;90.60;;;;;;5056916;28;20036;-82
2022/11/08 09:05:08;;;;;;;5.35;1.42;;;13.70;90.30;;;;;;5039921;28;20032;-82
2022/11/08 09:07:34;;;;;;;6.22;1.25;;;13.70;90.10;;;;;;5055311;28;20025;-81
2022/11/08 09:10:00;;;;;;;3.60;1.10;;;13.80;89.90;;;;;;5056750;28;20037;-82
2022/11/08 09:12:26;;;;;;;5.57;1.17;;;13.80;90.10;;;;;;5039156;28;20116;-82
2022/11/08 09:14:52;;;;;;;4.20;1.05;;;13.80;89.10;;;;;;5055588;28;20040;-82
2022/11/08 09:17:18;;;;;;;5.35;1.27;;;13.80;89.30;;;;;;5038459;28;20029;-83
2022/11/08 09:19:45;;;;;;;5.97;1.20;;;13.80;89.00;;;;;;5038654;28;20064;-81
2022/11/08 09:22:10;;;;;;;4.10;1.23;;;13.80;88.80;;;;;;5055033;28;20047;-82
2022/11/08 09:24:36;;;;;;;5.45;1.00;;;13.90;88.50;;;;;;5021669;28;20053;-80
2022/11/08 09:27:02;;;;;;;5.72;0.98;;;13.80;87.80;;;;;;5022078;28;20029;-81
2022/11/08 09:29:32;;;;;;;4.55;0.88;;;13.90;87.90;;;;;;5022180;28;20025;-82
2022/11/08 09:31:59;;;;;;;4.38;1.38;;;13.90;87.50;;;;;;5055591;28;20025;-82
2022/11/08 09:34:24;;;;;;;3.15;0.98;;;13.90;87.50;;;;;;5038024;28;20025;-81
2022/11/08 09:36:50;;;;;;;6.07;1.50;;;14.00;86.90;;;;;;5054982;28;20094;-82
2022/11/08 09:39:16;;;;;;;8.77;1.15;;;14.00;87.00;;;;;;5037954;28;20029;-82
2022/11/08 09:41:50;;;;;;;4.95;1.30;;;14.10;86.80;;;;;;5055004;28;20037;-82
2022/11/08 09:44:44;;;;;;;3.55;0.90;;;14.20;86.30;;;;;;5056251;28;20021;-82
2022/11/08 09:47:17;;;;;;;4.30;1.05;;;14.40;86.30;;;;;;5055045;28;20473;-82
2022/11/08 09:50:04;;;;;;;8.15;1.70;;;14.50;86.20;;;;;;5053807;28;20029;-84
2022/11/08 09:52:32;;;;;;;5.53;1.45;;;14.60;85.50;;;;;;5055867;28;20020;-82
2022/11/08 09:55:21;;;;;;;4.60;1.27;;;14.60;84.40;;;;;;5055842;28;20078;-82
2022/11/08 09:58:25;;;;;;;5.00;1.23;;;14.70;84.00;;;;;;5045578;28;20040;-82
2022/11/08 10:00:52;;;;;;;4.32;1.20;;;14.60;84.00;;;;;;5054406;28;20113;-84
2022/11/08 10:03:19;;;;;;;4.28;1.27;;;14.60;83.50;;;;;;5037915;28;20043;-82
2022/11/08 10:06:07;;;;;;;4.00;1.00;;;14.60;83.50;;;;;;5054253;28;20087;-83
2022/11/08 10:09:02;;;;;;;2.42;0.90;;;14.60;83.70;;;;;;5028896;28;20029;-83
2022/11/08 10:11:53;;;;;;;2.90;0.90;;;14.70;83.80;;;;;;5006707;28;20132;-81
2022/11/08 10:14:49;;;;;;;5.80;1.13;;;14.70;83.80;;;;;;5034210;28;20040;-82
2022/11/08 10:17:23;;;;;;;4.97;1.38;;;14.80;83.30;;;;;;5035424;28;20393;-83
2022/11/08 10:20:07;;;;;;;6.28;0.90;;;14.80;82.60;;;;;;5034302;28;20032;-82
2022/11/08 10:22:48;;;;;;;5.32;1.20;;;14.80;83.00;;;;;;5034129;28;20155;-83
2022/11/08 10:25:33;;;;;;;3.75;1.42;;;14.80;83.00;;;;;;5014308;28;20490;-82
2022/11/08 10:28:02;;;;;;;6.30;1.02;;;15.00;82.90;;;;;;5015390;28;20426;-81
2022/11/08 10:30:37;;;;;;;3.35;1.15;;;15.00;82.50;;;;;;5015382;28;20502;-82
2022/11/08 10:33:24;;;;;;;3.58;1.00;;;15.00;81.90;;;;;;5014641;28;20030;-83
2022/11/08 10:36:20;;;;;;;4.32;1.33;;;15.10;82.20;;;;;;5014155;28;20478;-82
2022/11/08 10:39:13;;;;;;;4.15;1.02;;;15.10;82.20;;;;;;5006884;28;20132;-82
2022/11/08 10:41:44;;;;;;;2.58;0.80;;;15.20;82.20;;;;;;5013955;28;20033;-83
2022/11/08 10:44:23;;;;;;;3.58;0.93;;;15.20;82.10;;;;;;5013978;28;20033;-82
2022/11/08 10:46:55;;;;;;;8.18;2.08;;;15.30;82.10;;;;;;5013979;28;20018;-82
2022/11/08 10:49:24;;;;;;;6.40;1.05;;;15.40;82.10;;;;;;5013817;28;20028;-83
2022/11/08 10:51:53;;;;;;;6.68;0.98;;;15.40;81.70;;;;;;5015000;28;20030;-83
2022/11/08 10:54:38;;;;;;;5.65;1.23;;;15.40;81.30;;;;;;5013953;28;20045;-82
2022/11/08 10:57:03;;;;;;;6.13;1.15;;;15.30;80.90;;;;;;5014323;28;20118;-83
2022/11/08 10:59:30;;;;;;;4.28;1.13;;;15.30;81.10;;;;;;4998092;28;20068;-83
2022/11/08 11:01:57;;;;;;;4.88;1.05;;;15.20;80.80;;;;;;5013011;28;20116;-82
2022/11/08 11:04:31;;;;;;;3.75;1.05;;;15.20;80.30;;;;;;5013854;28;20041;-81
2022/11/08 11:07:01;;;;;;;3.80;1.15;;;15.20;80.60;;;;;;5013953;28;20022;-83
2022/11/08 11:09:27;;;;;;;3.55;0.93;;;15.20;80.90;;;;;;5013625;28;20453;-81
2022/11/08 11:12:05;;;;;;;8.32;1.30;;;15.10;81.00;;;;;;5013528;28;20075;-82
2022/11/08 11:14:31;;;;;;;4.82;1.00;;;15.20;81.20;;;;;;5013714;28;20118;-82
2022/11/08 11:17:06;;;;;;;3.00;0.80;;;15.20;81.30;;;;;;5013753;28;20070;-83
2022/11/08 11:19:33;;;;;;;4.97;1.48;;;15.10;81.30;;;;;;5013243;28;20497;-81
2022/11/08 11:22:05;;;;;;;4.25;1.08;;;15.20;81.20;;;;;;5013267;28;20026;-82
2022/11/08 11:24:33;;;;;;;2.42;0.80;;;15.10;81.30;;;;;;5027641;28;20041;-82
2022/11/08 11:27:03;;;;;;;4.10;0.95;;;15.10;81.30;;;;;;5032877;28;20493;-85
2022/11/08 11:29:36;;;;;;;5.63;1.20;;;15.20;81.30;;;;;;5032765;28;20080;-82
2022/11/08 11:32:29;;;;;;;5.25;1.23;;;15.30;81.20;;;;;;5034354;28;20030;-82
2022/11/08 11:34:57;;;;;;;4.80;1.00;;;15.20;80.80;;;;;;5032814;28;20029;-83
2022/11/08 11:37:42;;;;;;;6.88;1.13;;;15.20;80.80;;;;;;5032570;28;20027;-82
2022/11/08 11:40:32;;;;;;;4.50;1.00;;;15.30;80.70;;;;;;5033304;28;20076;-82
2022/11/08 11:43:14;;;;;;;3.30;0.80;;;15.30;80.60;;;;;;5033802;28;20032;-82
2022/11/08 11:46:07;;;;;;;3.72;0.75;;;15.30;80.40;;;;;;5033920;28;20044;-82
2022/11/08 11:48:47;;;;;;;7.40;0.95;;;15.40;80.60;;;;;;5032796;28;20473;-83
2022/11/08 11:51:13;;;;;;;4.80;0.73;;;15.40;80.00;;;;;;5032404;28;20021;-82
2022/11/08 11:53:40;;;;;;;4.70;0.73;;;15.40;79.60;;;;;;5016190;28;20108;-82
2022/11/08 11:56:09;;;;;;;4.38;1.10;;;15.40;79.40;;;;;;5033729;28;20421;-82
2022/11/08 11:58:48;;;;;;;4.43;0.77;;;15.40;79.40;;;;;;5033863;28;20032;-82
2022/11/08 12:01:20;;;;;;;2.88;0.80;;;15.40;79.40;;;;;;5033760;28;20350;-83
2022/11/08 12:04:25;;;;;;;2.70;0.80;;;15.60;79.50;;;;;;5033610;28;20028;-82
2022/11/08 12:07:11;;;;;;;4.63;1.25;;;15.80;79.60;;;;;;5032466;28;20021;-81
2022/11/08 12:09:39;;;;;;;4.07;0.90;;;16.00;78.90;;;;;;5021773;28;20026;-83
2022/11/08 12:12:23;;;;;;;4.82;1.10;;;16.10;78.30;;;;;;5023093;28;20029;-83
2022/11/08 12:15:19;;;;;;;5.13;0.98;;;16.20;77.80;;;;;;5028659;28;20030;-84
2022/11/08 12:18:02;;;;;;;3.75;1.17;;;16.40;77.60;;;;;;5013237;28;20386;-82
2022/11/08 12:20:39;;;;;;;4.90;0.90;;;16.50;77.60;;;;;;5028689;28;20682;-84
2022/11/08 12:23:25;;;;;;;3.60;1.10;;;16.50;76.60;;;;;;5014228;28;20117;-83
2022/11/08 12:26:17;;;;;;;3.78;1.00;;;16.60;76.80;;;;;;5032735;28;20502;-82
2022/11/08 12:29:04;;;;;;;6.95;1.10;;;16.70;75.90;;;;;;5015311;28;20061;-84
2022/11/08 12:31:39;;;;;;;4.43;1.00;;;16.70;76.00;;;;;;5015932;28;20044;-82
2022/11/08 12:34:27;;;;;;;5.28;1.00;;;17.00;76.50;;;;;;5015372;28;20033;-83
2022/11/08 12:37:20;;;;;;;5.15;1.40;;;17.20;75.30;;;;;;5032071;28;20037;-85
2022/11/08 12:39:58;;;;;;;4.65;1.40;;;17.20;74.60;;;;;;5015091;28;20067;-82
2022/11/08 12:42:29;;;;;;;6.15;1.65;;;17.20;73.90;;;;;;5015495;28;20509;-83
2022/11/08 12:45:15;;;;;;;6.15;1.20;;;17.10;73.60;;;;;;5033007;28;20080;-82
2022/11/08 12:47:56;;;;;;;5.13;1.00;;;17.00;73.50;;;;;;5032827;28;20026;-81
2022/11/08 12:50:24;;;;;;;4.40;0.95;;;16.90;73.90;;;;;;5033027;28;20045;-84
2022/11/08 12:52:56;;;;;;;3.72;0.75;;;16.70;74.30;;;;;;5031688;28;20083;-82
2022/11/08 12:55:26;;;;;;;3.53;1.15;;;16.60;74.50;;;;;;5031511;28;20034;-82
2022/11/08 12:57:56;;;;;;;4.50;1.08;;;16.50;74.80;;;;;;5015290;28;20045;-82
2022/11/08 13:00:22;;;;;;;5.85;1.08;;;16.50;74.80;;;;;;5015167;28;20030;-82
2022/11/08 13:03:09;;;;;;;5.10;1.00;;;16.30;74.90;;;;;;5015192;28;20025;-83
2022/11/08 13:05:43;;;;;;;5.05;0.85;;;16.30;75.00;;;;;;5032837;28;20092;-83
2022/11/08 13:08:23;;;;;;;3.80;0.80;;;16.30;75.40;;;;;;5032862;28;20017;-82
2022/11/08 13:10:57;;;;;;;6.00;1.00;;;16.20;75.50;;;;;;5015020;28;20025;-82
2022/11/08 13:13:29;;;;;;;;;;;16.20;75.70;;;;;;5032071;28;20033;-83
2022/11/08 13:16:15;;;;;;;4.45;0.80;;;16.20;75.50;;;;;;5033364;28;19913;-82
2022/11/08 13:18:58;;;;;;;8.15;1.20;;;16.10;75.80;;;;;;5031881;28;20032;-83
2022/11/08 13:21:29;;;;;;;4.00;0.98;;;16.10;75.50;;;;;;5014684;28;20053;-82